sensor_id;sensor_type;location;lat;lon;timestamp;P1;P2;P0
45700;PMS5003;36277;32.852;-116.998;2023-03-14T00:00:15;0.20;0.20;0.00
45700;PMS5003;36277;32.852;-116.998;2023-03-14T00:02:41;0.40;0.40;0.20
45700;PMS5003;36277;32.852;-116.998;2023-03-14T00:05:08;0.20;0.20;0.00
45700;PMS5003;36277;32.852;-116.998;2023-03-14T00:07:38;1.00;1.00;1.00
45700;PMS5003;36277;32.852;-116.998;2023-03-14T00:10:06;0.00;0.00;0.00
45700;PMS5003;36277;32.852;-116.998;2023-03-14T00:12:35;0.40;0.40;0.00
45700;PMS5003;36277;32.852;-116.998;2023-03-14T00:15:01;0.20;0.20;0.00
45700;PMS5003;36277;32.852;-116.998;2023-03-14T00:17:32;0.40;0.40;0.00
45700;PMS5003;36277;32.852;-116.998;2023-03-14T00:19:59;1.40;1.40;1.20
45700;PMS5003;36277;32.852;-116.998;2023-03-14T00:22:37;1.00;1.00;1.00
45700;PMS5003;36277;32.852;-116.998;2023-03-14T00:25:05;0.40;0.40;0.40
45700;PMS5003;36277;32.852;-116.998;2023-03-14T00:27:33;0.40;0.40;0.00
45700;PMS5003;36277;32.852;-116.998;2023-03-14T00:30:00;0.60;0.60;0.00
45700;PMS5003;36277;32.852;-116.998;2023-03-14T00:32:27;0.80;0.80;0.40
45700;PMS5003;36277;32.852;-116.998;2023-03-14T00:34:53;0.20;0.20;0.20
45700;PMS5003;36277;32.852;-116.998;2023-03-14T00:37:19;0.20;0.20;0.20
45700;PMS5003;36277;32.852;-116.998;2023-03-14T00:39:46;0.40;0.40;0.20
45700;PMS5003;36277;32.852;-116.998;2023-03-14T00:42:13;0.00;0.00;0.00
45700;PMS5003;36277;32.852;-116.998;2023-03-14T00:44:42;0.40;0.40;0.20
45700;PMS5003;36277;32.852;-116.998;2023-03-14T00:47:08;0.40;0.40;0.40
45700;PMS5003;36277;32.852;-116.998;2023-03-14T00:49:35;0.00;0.00;0.00
45700;PMS5003;36277;32.852;-116.998;2023-03-14T00:52:01;0.00;0.00;0.00
45700;PMS5003;36277;32.852;-116.998;2023-03-14T00:54:27;0.40;0.40;0.20
45700;PMS5003;36277;32.852;-116.998;2023-03-14T00:56:53;0.40;0.40;0.40
45700;PMS5003;36277;32.852;-116.998;2023-03-14T00:59:19;0.80;0.80;0.80
45700;PMS5003;36277;32.852;-116.998;2023-03-14T01:01:46;1.00;1.00;1.00
45700;PMS5003;36277;32.852;-116.998;2023-03-14T01:04:12;0.20;0.20;0.20
45700;PMS5003;36277;32.852;-116.998;2023-03-14T01:06:39;0.00;0.00;0.00
45700;PMS5003;36277;32.852;-116.998;2023-03-14T01:09:05;1.00;1.00;0.80
45700;PMS5003;36277;32.852;-116.998;2023-03-14T01:11:33;0.20;0.20;0.00
45700;PMS5003;36277;32.852;-116.998;2023-03-14T01:14:00;0.80;0.80;0.80
45700;PMS5003;36277;32.852;-116.998;2023-03-14T01:16:29;0.80;0.80;0.80
45700;PMS5003;36277;32.852;-116.998;2023-03-14T01:18:58;0.00;0.00;0.00
45700;PMS5003;36277;32.852;-116.998;2023-03-14T01:21:25;0.20;0.20;0.00
45700;PMS5003;36277;32.852;-116.998;2023-03-14T01:23:59;1.00;1.00;0.80
45700;PMS5003;36277;32.852;-116.998;2023-03-14T01:26:29;1.00;1.00;1.00
45700;PMS5003;36277;32.852;-116.998;2023-03-14T01:28:56;0.00;0.00;0.00
45700;PMS5003;36277;32.852;-116.998;2023-03-14T01:31:23;1.20;1.20;1.00
45700;PMS5003;36277;32.852;-116.998;2023-03-14T01:33:50;1.00;1.00;1.00
45700;PMS5003;36277;32.852;-116.998;2023-03-14T01:36:16;0.00;0.00;0.00
45700;PMS5003;36277;32.852;-116.998;2023-03-14T01:38:43;0.00;0.00;0.00
45700;PMS5003;36277;32.852;-116.998;2023-03-14T01:41:20;0.40;0.40;0.20
45700;PMS5003;36277;32.852;-116.998;2023-03-14T01:43:49;1.00;1.00;1.00
45700;PMS5003;36277;32.852;-116.998;2023-03-14T01:49:01;0.00;0.00;0.00
45700;PMS5003;36277;32.852;-116.998;2023-03-14T01:54:05;0.20;0.20;0.20
45700;PMS5003;36277;32.852;-116.998;2023-03-14T01:56:38;1.40;1.40;0.60
45700;PMS5003;36277;32.852;-116.998;2023-03-14T01:59:08;0.80;0.80;0.80
45700;PMS5003;36277;32.852;-116.998;2023-03-14T02:01:36;0.20;0.20;0.20
45700;PMS5003;36277;32.852;-116.998;2023-03-14T02:04:07;0.40;0.40;0.40
45700;PMS5003;36277;32.852;-116.998;2023-03-14T02:06:42;0.40;0.40;0.40
45700;PMS5003;36277;32.852;-116.998;2023-03-14T02:09:30;0.00;0.00;0.00
45700;PMS5003;36277;32.852;-116.998;2023-03-14T02:11:57;0.40;0.40;0.40
45700;PMS5003;36277;32.852;-116.998;2023-03-14T02:14:26;1.00;1.00;1.00
45700;PMS5003;36277;32.852;-116.998;2023-03-14T02:16:57;0.40;0.40;0.40
45700;PMS5003;36277;32.852;-116.998;2023-03-14T02:19:31;0.40;0.40;0.40
45700;PMS5003;36277;32.852;-116.998;2023-03-14T02:22:13;0.40;0.40;0.40
45700;PMS5003;36277;32.852;-116.998;2023-03-14T02:24:49;0.80;0.80;0.40
45700;PMS5003;36277;32.852;-116.998;2023-03-14T02:27:29;0.40;0.40;0.40
45700;PMS5003;36277;32.852;-116.998;2023-03-14T02:32:27;0.20;0.20;0.20
45700;PMS5003;36277;32.852;-116.998;2023-03-14T02:34:57;1.00;1.00;1.00
45700;PMS5003;36277;32.852;-116.998;2023-03-14T02:37:30;0.40;0.40;0.40
45700;PMS5003;36277;32.852;-116.998;2023-03-14T02:40:02;0.40;0.40;0.40
45700;PMS5003;36277;32.852;-116.998;2023-03-14T02:42:29;1.40;1.40;1.40
45700;PMS5003;36277;32.852;-116.998;2023-03-14T02:47:34;1.80;1.80;1.00
45700;PMS5003;36277;32.852;-116.998;2023-03-14T02:50:13;1.00;1.00;0.40
45700;PMS5003;36277;32.852;-116.998;2023-03-14T02:52:44;2.00;1.80;1.20
45700;PMS5003;36277;32.852;-116.998;2023-03-14T02:55:10;1.00;1.00;1.00
45700;PMS5003;36277;32.852;-116.998;2023-03-14T02:57:36;2.00;2.00;1.60
45700;PMS5003;36277;32.852;-116.998;2023-03-14T03:00:03;1.00;1.00;1.00
45700;PMS5003;36277;32.852;-116.998;2023-03-14T03:02:30;1.00;1.00;0.80
45700;PMS5003;36277;32.852;-116.998;2023-03-14T03:04:57;2.00;2.00;1.40
45700;PMS5003;36277;32.852;-116.998;2023-03-14T03:07:24;1.40;1.40;1.20
45700;PMS5003;36277;32.852;-116.998;2023-03-14T03:09:50;2.00;2.00;2.00
45700;PMS5003;36277;32.852;-116.998;2023-03-14T03:12:16;0.40;0.40;0.40
45700;PMS5003;36277;32.852;-116.998;2023-03-14T03:14:42;1.60;1.60;1.00
45700;PMS5003;36277;32.852;-116.998;2023-03-14T03:17:09;2.00;2.00;2.00
45700;PMS5003;36277;32.852;-116.998;2023-03-14T03:19:35;1.20;1.20;0.80
45700;PMS5003;36277;32.852;-116.998;2023-03-14T03:22:01;1.40;1.40;1.40
45700;PMS5003;36277;32.852;-116.998;2023-03-14T03:24:27;0.20;0.20;0.00
45700;PMS5003;36277;32.852;-116.998;2023-03-14T03:26:54;1.40;1.40;0.40
45700;PMS5003;36277;32.852;-116.998;2023-03-14T03:29:20;2.40;2.40;2.00
45700;PMS5003;36277;32.852;-116.998;2023-03-14T03:31:46;1.20;1.20;1.20
45700;PMS5003;36277;32.852;-116.998;2023-03-14T03:34:13;1.80;1.80;1.60
45700;PMS5003;36277;32.852;-116.998;2023-03-14T03:36:39;1.40;1.40;1.40
45700;PMS5003;36277;32.852;-116.998;2023-03-14T03:39:06;2.60;2.60;2.00
45700;PMS5003;36277;32.852;-116.998;2023-03-14T03:41:33;0.80;0.80;0.60
45700;PMS5003;36277;32.852;-116.998;2023-03-14T03:43:59;2.00;2.00;2.00
45700;PMS5003;36277;32.852;-116.998;2023-03-14T03:46:25;2.80;2.80;2.40
45700;PMS5003;36277;32.852;-116.998;2023-03-14T03:48:55;1.60;1.60;1.60
45700;PMS5003;36277;32.852;-116.998;2023-03-14T03:51:23;1.00;1.00;1.00
45700;PMS5003;36277;32.852;-116.998;2023-03-14T03:53:50;1.60;1.40;1.00
45700;PMS5003;36277;32.852;-116.998;2023-03-14T03:56:16;2.00;2.00;1.00
45700;PMS5003;36277;32.852;-116.998;2023-03-14T03:58:43;1.80;1.80;1.40
45700;PMS5003;36277;32.852;-116.998;2023-03-14T04:01:09;2.40;2.40;1.80
45700;PMS5003;36277;32.852;-116.998;2023-03-14T04:03:36;2.60;2.60;2.40
45700;PMS5003;36277;32.852;-116.998;2023-03-14T04:06:07;2.00;2.00;1.40
45700;PMS5003;36277;32.852;-116.998;2023-03-14T04:08:36;2.60;2.60;1.60
45700;PMS5003;36277;32.852;-116.998;2023-03-14T04:11:03;1.40;1.40;0.80
45700;PMS5003;36277;32.852;-116.998;2023-03-14T04:13:30;1.20;1.20;1.20
45700;PMS5003;36277;32.852;-116.998;2023-03-14T04:15:56;2.00;2.00;2.00
45700;PMS5003;36277;32.852;-116.998;2023-03-14T04:18:22;2.40;2.40;2.00
45700;PMS5003;36277;32.852;-116.998;2023-03-14T04:20:53;2.00;2.00;1.80
45700;PMS5003;36277;32.852;-116.998;2023-03-14T04:23:21;1.00;1.00;1.00
45700;PMS5003;36277;32.852;-116.998;2023-03-14T04:25:50;1.60;1.60;1.60
45700;PMS5003;36277;32.852;-116.998;2023-03-14T04:28:17;2.80;2.80;2.00
45700;PMS5003;36277;32.852;-116.998;2023-03-14T04:30:43;1.00;1.00;1.00
45700;PMS5003;36277;32.852;-116.998;2023-03-14T04:33:09;0.00;0.00;0.00
45700;PMS5003;36277;32.852;-116.998;2023-03-14T04:35:37;1.40;1.40;1.00
45700;PMS5003;36277;32.852;-116.998;2023-03-14T04:38:04;2.00;2.00;1.60
45700;PMS5003;36277;32.852;-116.998;2023-03-14T04:40:30;2.20;2.20;1.40
45700;PMS5003;36277;32.852;-116.998;2023-03-14T04:42:56;2.00;2.00;1.20
45700;PMS5003;36277;32.852;-116.998;2023-03-14T04:45:22;2.80;2.80;2.60
45700;PMS5003;36277;32.852;-116.998;2023-03-14T04:47:49;2.00;2.00;2.00
45700;PMS5003;36277;32.852;-116.998;2023-03-14T04:50:15;2.00;2.00;1.40
45700;PMS5003;36277;32.852;-116.998;2023-03-14T04:52:41;2.00;2.00;1.20
45700;PMS5003;36277;32.852;-116.998;2023-03-14T04:55:07;1.80;1.80;1.20
45700;PMS5003;36277;32.852;-116.998;2023-03-14T04:57:34;1.80;1.80;1.80
45700;PMS5003;36277;32.852;-116.998;2023-03-14T05:00:00;1.40;1.40;1.20
45700;PMS5003;36277;32.852;-116.998;2023-03-14T05:02:31;2.80;2.40;2.00
45700;PMS5003;36277;32.852;-116.998;2023-03-14T05:04:57;2.00;2.00;1.80
45700;PMS5003;36277;32.852;-116.998;2023-03-14T05:07:24;2.00;2.00;1.20
45700;PMS5003;36277;32.852;-116.998;2023-03-14T05:09:50;2.00;2.00;1.80
45700;PMS5003;36277;32.852;-116.998;2023-03-14T05:12:18;2.00;2.00;2.00
45700;PMS5003;36277;32.852;-116.998;2023-03-14T05:14:46;2.40;2.40;1.40
45700;PMS5003;36277;32.852;-116.998;2023-03-14T05:17:12;3.00;3.00;2.20
45700;PMS5003;36277;32.852;-116.998;2023-03-14T05:19:40;2.80;2.80;2.20
45700;PMS5003;36277;32.852;-116.998;2023-03-14T05:22:07;2.00;2.00;2.00
45700;PMS5003;36277;32.852;-116.998;2023-03-14T05:24:33;2.40;2.40;2.00
45700;PMS5003;36277;32.852;-116.998;2023-03-14T05:26:59;3.00;3.00;2.40
45700;PMS5003;36277;32.852;-116.998;2023-03-14T05:29:25;1.60;1.60;1.00
45700;PMS5003;36277;32.852;-116.998;2023-03-14T05:31:52;1.40;1.40;1.00
45700;PMS5003;36277;32.852;-116.998;2023-03-14T05:34:18;3.00;3.00;2.00
45700;PMS5003;36277;32.852;-116.998;2023-03-14T05:36:44;2.00;2.00;1.20
45700;PMS5003;36277;32.852;-116.998;2023-03-14T05:39:10;4.00;4.00;3.00
45700;PMS5003;36277;32.852;-116.998;2023-03-14T05:41:37;2.80;2.80;2.00
45700;PMS5003;36277;32.852;-116.998;2023-03-14T05:44:03;3.00;3.00;2.20
45700;PMS5003;36277;32.852;-116.998;2023-03-14T05:46:30;3.20;3.20;3.00
45700;PMS5003;36277;32.852;-116.998;2023-03-14T05:48:57;2.20;2.20;2.00
45700;PMS5003;36277;32.852;-116.998;2023-03-14T05:51:23;2.80;2.80;2.20
45700;PMS5003;36277;32.852;-116.998;2023-03-14T05:53:49;2.20;2.20;2.00
45700;PMS5003;36277;32.852;-116.998;2023-03-14T05:56:16;2.00;2.00;2.00
45700;PMS5003;36277;32.852;-116.998;2023-03-14T05:58:42;1.00;1.00;1.00
45700;PMS5003;36277;32.852;-116.998;2023-03-14T06:01:08;2.80;2.80;2.60
45700;PMS5003;36277;32.852;-116.998;2023-03-14T06:03:35;1.80;1.80;1.80
45700;PMS5003;36277;32.852;-116.998;2023-03-14T06:06:01;3.00;3.00;2.40
45700;PMS5003;36277;32.852;-116.998;2023-03-14T06:08:27;3.20;3.20;2.20
45700;PMS5003;36277;32.852;-116.998;2023-03-14T06:10:54;2.00;2.00;2.00
45700;PMS5003;36277;32.852;-116.998;2023-03-14T06:13:22;3.00;3.00;3.00
45700;PMS5003;36277;32.852;-116.998;2023-03-14T06:15:48;2.80;2.80;2.40
45700;PMS5003;36277;32.852;-116.998;2023-03-14T06:18:14;2.00;2.00;2.00
45700;PMS5003;36277;32.852;-116.998;2023-03-14T06:20:40;3.00;3.00;2.20
45700;PMS5003;36277;32.852;-116.998;2023-03-14T06:23:07;2.20;2.20;2.00
45700;PMS5003;36277;32.852;-116.998;2023-03-14T06:25:34;3.00;3.00;3.00
45700;PMS5003;36277;32.852;-116.998;2023-03-14T06:28:01;2.80;2.80;2.20
45700;PMS5003;36277;32.852;-116.998;2023-03-14T06:30:28;2.00;2.00;2.00
45700;PMS5003;36277;32.852;-116.998;2023-03-14T06:32:54;1.80;1.80;1.20
45700;PMS5003;36277;32.852;-116.998;2023-03-14T06:35:21;2.00;2.00;2.00
45700;PMS5003;36277;32.852;-116.998;2023-03-14T06:37:51;2.00;2.00;2.00
45700;PMS5003;36277;32.852;-116.998;2023-03-14T06:40:17;2.60;2.60;2.00
45700;PMS5003;36277;32.852;-116.998;2023-03-14T06:42:44;2.00;2.00;1.20
45700;PMS5003;36277;32.852;-116.998;2023-03-14T06:45:10;2.80;2.80;2.00
45700;PMS5003;36277;32.852;-116.998;2023-03-14T06:47:37;3.00;3.00;2.20
45700;PMS5003;36277;32.852;-116.998;2023-03-14T06:50:06;2.80;2.80;1.80
45700;PMS5003;36277;32.852;-116.998;2023-03-14T06:52:33;3.40;3.40;3.00
45700;PMS5003;36277;32.852;-116.998;2023-03-14T06:55:00;2.40;2.40;2.00
45700;PMS5003;36277;32.852;-116.998;2023-03-14T06:57:26;2.00;2.00;1.80
45700;PMS5003;36277;32.852;-116.998;2023-03-14T06:59:53;3.00;3.00;2.40
45700;PMS5003;36277;32.852;-116.998;2023-03-14T07:02:19;2.20;2.20;2.00
45700;PMS5003;36277;32.852;-116.998;2023-03-14T07:04:45;2.20;2.20;2.00
45700;PMS5003;36277;32.852;-116.998;2023-03-14T07:07:11;2.00;2.00;1.00
45700;PMS5003;36277;32.852;-116.998;2023-03-14T07:09:38;2.80;2.80;2.00
45700;PMS5003;36277;32.852;-116.998;2023-03-14T07:12:04;2.00;2.00;1.80
45700;PMS5003;36277;32.852;-116.998;2023-03-14T07:14:31;2.00;2.00;1.60
45700;PMS5003;36277;32.852;-116.998;2023-03-14T07:16:57;2.20;2.20;2.00
45700;PMS5003;36277;32.852;-116.998;2023-03-14T07:19:23;0.40;0.40;0.40
45700;PMS5003;36277;32.852;-116.998;2023-03-14T07:21:50;3.80;3.80;3.00
45700;PMS5003;36277;32.852;-116.998;2023-03-14T07:24:16;1.00;1.00;1.00
45700;PMS5003;36277;32.852;-116.998;2023-03-14T07:26:42;1.20;1.20;1.00
45700;PMS5003;36277;32.852;-116.998;2023-03-14T07:29:08;2.80;2.80;2.00
45700;PMS5003;36277;32.852;-116.998;2023-03-14T07:31:34;2.00;2.00;2.00
45700;PMS5003;36277;32.852;-116.998;2023-03-14T07:34:01;3.00;3.00;2.00
45700;PMS5003;36277;32.852;-116.998;2023-03-14T07:36:27;2.00;2.00;2.00
45700;PMS5003;36277;32.852;-116.998;2023-03-14T07:38:53;2.00;2.00;2.00
45700;PMS5003;36277;32.852;-116.998;2023-03-14T07:41:19;3.00;3.00;2.20
45700;PMS5003;36277;32.852;-116.998;2023-03-14T07:43:46;3.00;3.00;3.00
45700;PMS5003;36277;32.852;-116.998;2023-03-14T07:46:12;3.00;3.00;2.00
45700;PMS5003;36277;32.852;-116.998;2023-03-14T07:48:39;2.60;2.60;2.00
45700;PMS5003;36277;32.852;-116.998;2023-03-14T07:51:06;3.60;3.60;2.40
45700;PMS5003;36277;32.852;-116.998;2023-03-14T07:53:32;2.00;2.00;2.00
45700;PMS5003;36277;32.852;-116.998;2023-03-14T07:55:59;1.60;1.60;1.00
45700;PMS5003;36277;32.852;-116.998;2023-03-14T07:58:26;1.00;1.00;0.00
45700;PMS5003;36277;32.852;-116.998;2023-03-14T08:00:52;3.00;3.00;2.00
45700;PMS5003;36277;32.852;-116.998;2023-03-14T08:03:18;3.00;3.00;2.40
45700;PMS5003;36277;32.852;-116.998;2023-03-14T08:05:47;3.80;3.80;3.00
45700;PMS5003;36277;32.852;-116.998;2023-03-14T08:08:15;3.20;3.20;3.00
45700;PMS5003;36277;32.852;-116.998;2023-03-14T08:10:42;3.40;3.40;3.00
45700;PMS5003;36277;32.852;-116.998;2023-03-14T08:13:09;3.00;3.00;2.00
45700;PMS5003;36277;32.852;-116.998;2023-03-14T08:15:36;3.00;3.00;2.00
45700;PMS5003;36277;32.852;-116.998;2023-03-14T08:18:03;3.80;3.80;2.40
45700;PMS5003;36277;32.852;-116.998;2023-03-14T08:20:30;2.40;2.40;2.00
45700;PMS5003;36277;32.852;-116.998;2023-03-14T08:22:56;3.00;3.00;2.00
45700;PMS5003;36277;32.852;-116.998;2023-03-14T08:25:24;3.00;3.00;2.20
45700;PMS5003;36277;32.852;-116.998;2023-03-14T08:27:51;2.20;2.20;1.20
45700;PMS5003;36277;32.852;-116.998;2023-03-14T08:30:18;3.80;3.80;3.00
45700;PMS5003;36277;32.852;-116.998;2023-03-14T08:32:45;3.00;3.00;3.00
45700;PMS5003;36277;32.852;-116.998;2023-03-14T08:35:12;3.20;3.20;3.00
45700;PMS5003;36277;32.852;-116.998;2023-03-14T08:37:39;3.20;3.20;2.80
45700;PMS5003;36277;32.852;-116.998;2023-03-14T08:40:05;3.80;3.80;2.80
45700;PMS5003;36277;32.852;-116.998;2023-03-14T08:42:33;5.00;5.00;4.00
45700;PMS5003;36277;32.852;-116.998;2023-03-14T08:44:59;3.80;3.80;3.00
45700;PMS5003;36277;32.852;-116.998;2023-03-14T08:47:25;3.20;3.20;2.60
45700;PMS5003;36277;32.852;-116.998;2023-03-14T08:49:52;2.60;2.60;2.00
45700;PMS5003;36277;32.852;-116.998;2023-03-14T08:52:19;3.60;3.60;3.00
45700;PMS5003;36277;32.852;-116.998;2023-03-14T08:54:45;3.20;3.20;2.40
45700;PMS5003;36277;32.852;-116.998;2023-03-14T08:57:12;3.00;3.00;2.00
45700;PMS5003;36277;32.852;-116.998;2023-03-14T08:59:38;3.40;3.40;2.60
45700;PMS5003;36277;32.852;-116.998;2023-03-14T09:02:04;3.60;3.60;2.60
45700;PMS5003;36277;32.852;-116.998;2023-03-14T09:04:31;2.00;2.00;1.40
45700;PMS5003;36277;32.852;-116.998;2023-03-14T09:06:58;3.00;3.00;2.60
45700;PMS5003;36277;32.852;-116.998;2023-03-14T09:09:25;3.80;3.80;2.80
45700;PMS5003;36277;32.852;-116.998;2023-03-14T09:11:55;1.40;1.40;1.40
45700;PMS5003;36277;32.852;-116.998;2023-03-14T09:14:22;2.00;2.00;1.00
45700;PMS5003;36277;32.852;-116.998;2023-03-14T09:16:48;3.00;3.00;2.00
45700;PMS5003;36277;32.852;-116.998;2023-03-14T09:19:16;2.60;2.60;2.20
45700;PMS5003;36277;32.852;-116.998;2023-03-14T09:21:42;3.00;3.00;2.00
45700;PMS5003;36277;32.852;-116.998;2023-03-14T09:24:08;3.00;3.00;2.00
45700;PMS5003;36277;32.852;-116.998;2023-03-14T09:26:34;1.00;1.00;1.00
45700;PMS5003;36277;32.852;-116.998;2023-03-14T09:29:01;3.40;3.40;2.00
45700;PMS5003;36277;32.852;-116.998;2023-03-14T09:31:27;2.60;2.60;2.00
45700;PMS5003;36277;32.852;-116.998;2023-03-14T09:33:54;2.20;2.20;2.00
45700;PMS5003;36277;32.852;-116.998;2023-03-14T09:36:21;3.00;3.00;2.40
45700;PMS5003;36277;32.852;-116.998;2023-03-14T09:38:47;2.00;2.00;1.80
45700;PMS5003;36277;32.852;-116.998;2023-03-14T09:41:27;2.00;2.00;1.40
45700;PMS5003;36277;32.852;-116.998;2023-03-14T09:44:00;3.80;3.80;3.00
45700;PMS5003;36277;32.852;-116.998;2023-03-14T09:46:31;3.00;3.00;2.80
45700;PMS5003;36277;32.852;-116.998;2023-03-14T09:49:01;3.00;3.00;2.00
45700;PMS5003;36277;32.852;-116.998;2023-03-14T09:51:28;3.00;3.00;2.00
45700;PMS5003;36277;32.852;-116.998;2023-03-14T09:53:55;2.60;2.60;2.00
45700;PMS5003;36277;32.852;-116.998;2023-03-14T09:56:23;2.00;2.00;2.00
45700;PMS5003;36277;32.852;-116.998;2023-03-14T09:58:57;3.00;3.00;2.00
45700;PMS5003;36277;32.852;-116.998;2023-03-14T10:01:27;2.00;2.00;1.20
45700;PMS5003;36277;32.852;-116.998;2023-03-14T10:03:55;3.00;3.00;2.00
45700;PMS5003;36277;32.852;-116.998;2023-03-14T10:06:25;3.40;3.40;2.40
45700;PMS5003;36277;32.852;-116.998;2023-03-14T10:08:53;2.00;2.00;1.80
45700;PMS5003;36277;32.852;-116.998;2023-03-14T10:11:22;2.20;2.20;2.00
45700;PMS5003;36277;32.852;-116.998;2023-03-14T10:14:07;3.00;3.00;2.60
45700;PMS5003;36277;32.852;-116.998;2023-03-14T10:16:37;2.40;2.40;2.00
45700;PMS5003;36277;32.852;-116.998;2023-03-14T10:19:10;2.00;2.00;1.60
45700;PMS5003;36277;32.852;-116.998;2023-03-14T10:21:44;3.40;3.40;2.20
45700;PMS5003;36277;32.852;-116.998;2023-03-14T10:24:27;2.00;2.00;1.00
45700;PMS5003;36277;32.852;-116.998;2023-03-14T10:26:59;2.60;2.60;2.00
45700;PMS5003;36277;32.852;-116.998;2023-03-14T10:29:56;2.60;2.60;2.20
45700;PMS5003;36277;32.852;-116.998;2023-03-14T10:32:28;3.00;3.00;2.00
45700;PMS5003;36277;32.852;-116.998;2023-03-14T10:40:20;2.20;2.20;1.60
45700;PMS5003;36277;32.852;-116.998;2023-03-14T10:42:53;2.00;2.00;1.60
45700;PMS5003;36277;32.852;-116.998;2023-03-14T10:45:40;1.60;1.60;1.00
45700;PMS5003;36277;32.852;-116.998;2023-03-14T10:48:18;2.00;2.00;1.40
45700;PMS5003;36277;32.852;-116.998;2023-03-14T10:50:59;2.80;2.80;2.00
45700;PMS5003;36277;32.852;-116.998;2023-03-14T10:54:19;1.80;1.80;1.00
45700;PMS5003;36277;32.852;-116.998;2023-03-14T10:56:27;3.00;3.00;2.80
45700;PMS5003;36277;32.852;-116.998;2023-03-14T10:59:00;2.00;2.00;1.80
45700;PMS5003;36277;32.852;-116.998;2023-03-14T11:07:15;3.00;3.00;2.60
45700;PMS5003;36277;32.852;-116.998;2023-03-14T11:09:46;2.00;2.00;1.60
45700;PMS5003;36277;32.852;-116.998;2023-03-14T11:14:58;4.00;4.00;3.00
45700;PMS5003;36277;32.852;-116.998;2023-03-14T11:17:34;3.00;3.00;2.20
45700;PMS5003;36277;32.852;-116.998;2023-03-14T11:22:43;2.80;2.80;2.80
45700;PMS5003;36277;32.852;-116.998;2023-03-14T11:30:40;1.40;1.40;1.00
45700;PMS5003;36277;32.852;-116.998;2023-03-14T11:33:30;2.00;2.00;1.20
45700;PMS5003;36277;32.852;-116.998;2023-03-14T11:36:08;2.00;2.00;2.00
45700;PMS5003;36277;32.852;-116.998;2023-03-14T11:41:59;1.00;1.00;1.00
45700;PMS5003;36277;32.852;-116.998;2023-03-14T11:44:31;1.80;1.80;1.40
45700;PMS5003;36277;32.852;-116.998;2023-03-14T11:47:13;1.40;1.40;1.40
45700;PMS5003;36277;32.852;-116.998;2023-03-14T11:52:49;3.00;3.00;2.20
45700;PMS5003;36277;32.852;-116.998;2023-03-14T11:55:24;2.00;2.00;1.40
45700;PMS5003;36277;32.852;-116.998;2023-03-14T11:57:56;2.80;2.80;2.00
45700;PMS5003;36277;32.852;-116.998;2023-03-14T12:00:27;2.00;2.00;2.00
45700;PMS5003;36277;32.852;-116.998;2023-03-14T12:05:45;2.00;2.00;2.00
45700;PMS5003;36277;32.852;-116.998;2023-03-14T12:08:55;1.80;1.80;1.80
45700;PMS5003;36277;32.852;-116.998;2023-03-14T12:14:21;2.20;2.20;2.00
45700;PMS5003;36277;32.852;-116.998;2023-03-14T12:16:57;1.00;1.00;1.00
45700;PMS5003;36277;32.852;-116.998;2023-03-14T12:19:44;2.00;2.00;2.00
45700;PMS5003;36277;32.852;-116.998;2023-03-14T12:22:31;2.00;2.00;2.00
45700;PMS5003;36277;32.852;-116.998;2023-03-14T12:25:05;3.00;3.00;3.00
45700;PMS5003;36277;32.852;-116.998;2023-03-14T12:28:22;2.00;2.00;2.00
45700;PMS5003;36277;32.852;-116.998;2023-03-14T12:30:42;2.80;2.80;2.40
45700;PMS5003;36277;32.852;-116.998;2023-03-14T12:35:42;2.00;2.00;2.00
45700;PMS5003;36277;32.852;-116.998;2023-03-14T12:38:13;2.00;2.00;2.00
45700;PMS5003;36277;32.852;-116.998;2023-03-14T12:41:03;2.40;2.40;2.00
45700;PMS5003;36277;32.852;-116.998;2023-03-14T12:43:45;2.80;2.80;2.00
45700;PMS5003;36277;32.852;-116.998;2023-03-14T12:51:36;2.40;2.40;2.00
45700;PMS5003;36277;32.852;-116.998;2023-03-14T12:59:52;3.00;3.00;2.00
45700;PMS5003;36277;32.852;-116.998;2023-03-14T13:02:25;2.00;2.00;2.00
45700;PMS5003;36277;32.852;-116.998;2023-03-14T13:05:02;2.00;2.00;2.00
45700;PMS5003;36277;32.852;-116.998;2023-03-14T13:10:15;2.20;2.00;1.60
45700;PMS5003;36277;32.852;-116.998;2023-03-14T13:15:29;3.00;3.00;2.00
45700;PMS5003;36277;32.852;-116.998;2023-03-14T13:18:22;1.80;1.80;1.00
45700;PMS5003;36277;32.852;-116.998;2023-03-14T13:20:53;2.00;2.00;2.00
45700;PMS5003;36277;32.852;-116.998;2023-03-14T13:23:25;2.60;2.60;2.20
45700;PMS5003;36277;32.852;-116.998;2023-03-14T13:25:53;2.00;2.00;2.00
45700;PMS5003;36277;32.852;-116.998;2023-03-14T13:28:21;2.00;2.00;1.60
45700;PMS5003;36277;32.852;-116.998;2023-03-14T13:30:48;2.00;2.00;2.00
45700;PMS5003;36277;32.852;-116.998;2023-03-14T13:33:20;1.00;1.00;1.00
45700;PMS5003;36277;32.852;-116.998;2023-03-14T13:35:59;1.60;1.60;1.20
45700;PMS5003;36277;32.852;-116.998;2023-03-14T13:38:32;1.00;1.00;1.00
45700;PMS5003;36277;32.852;-116.998;2023-03-14T13:41:04;2.00;2.00;2.00
45700;PMS5003;36277;32.852;-116.998;2023-03-14T13:43:33;1.00;1.00;1.00
45700;PMS5003;36277;32.852;-116.998;2023-03-14T13:46:22;1.00;1.00;1.00
45700;PMS5003;36277;32.852;-116.998;2023-03-14T13:48:52;2.00;2.00;2.00
45700;PMS5003;36277;32.852;-116.998;2023-03-14T13:51:24;2.00;2.00;1.80
45700;PMS5003;36277;32.852;-116.998;2023-03-14T13:53:54;1.20;1.20;1.00
45700;PMS5003;36277;32.852;-116.998;2023-03-14T13:56:22;3.00;3.00;2.60
45700;PMS5003;36277;32.852;-116.998;2023-03-14T13:58:50;0.40;0.40;0.00
45700;PMS5003;36277;32.852;-116.998;2023-03-14T14:03:52;2.40;2.40;2.00
45700;PMS5003;36277;32.852;-116.998;2023-03-14T14:09:10;1.00;1.00;1.00
45700;PMS5003;36277;32.852;-116.998;2023-03-14T14:11:43;1.80;1.80;1.60
45700;PMS5003;36277;32.852;-116.998;2023-03-14T14:14:21;2.00;2.00;2.00
45700;PMS5003;36277;32.852;-116.998;2023-03-14T14:16:55;2.40;2.40;2.00
45700;PMS5003;36277;32.852;-116.998;2023-03-14T14:19:23;2.00;2.00;1.00
45700;PMS5003;36277;32.852;-116.998;2023-03-14T14:21:54;2.00;2.00;1.80
45700;PMS5003;36277;32.852;-116.998;2023-03-14T14:24:22;3.00;3.00;3.00
45700;PMS5003;36277;32.852;-116.998;2023-03-14T14:26:51;4.00;4.00;3.00
45700;PMS5003;36277;32.852;-116.998;2023-03-14T14:29:37;6.60;6.60;6.00
45700;PMS5003;36277;32.852;-116.998;2023-03-14T14:35:06;6.40;6.40;6.00
45700;PMS5003;36277;32.852;-116.998;2023-03-14T14:37:27;8.00;8.00;7.00
45700;PMS5003;36277;32.852;-116.998;2023-03-14T14:39:58;6.60;6.60;5.80
45700;PMS5003;36277;32.852;-116.998;2023-03-14T14:42:55;6.80;6.80;6.00
45700;PMS5003;36277;32.852;-116.998;2023-03-14T14:45:28;6.40;6.40;6.00
45700;PMS5003;36277;32.852;-116.998;2023-03-14T14:47:57;5.80;5.80;5.00
45700;PMS5003;36277;32.852;-116.998;2023-03-14T14:50:39;6.00;6.00;5.00
45700;PMS5003;36277;32.852;-116.998;2023-03-14T14:53:31;5.40;5.40;4.60
45700;PMS5003;36277;32.852;-116.998;2023-03-14T14:56:06;5.00;5.00;5.00
45700;PMS5003;36277;32.852;-116.998;2023-03-14T14:58:41;5.20;5.20;4.40
45700;PMS5003;36277;32.852;-116.998;2023-03-14T15:01:17;5.80;5.80;5.00
45700;PMS5003;36277;32.852;-116.998;2023-03-14T15:03:49;6.60;6.60;5.60
45700;PMS5003;36277;32.852;-116.998;2023-03-14T15:06:17;6.60;6.60;5.00
45700;PMS5003;36277;32.852;-116.998;2023-03-14T15:08:45;6.40;6.40;5.40
45700;PMS5003;36277;32.852;-116.998;2023-03-14T15:11:16;4.00;4.00;3.80